sensor_id;sensor_type;location;lat;lon;timestamp;pressure;altitude;pressure_sealevel;temperature;humidity
6524;BME280;3295;38.928;-77.052;2023-02-14T00:01:26;99893.09;;;14.08;31.67
6524;BME280;3295;38.928;-77.052;2023-02-14T00:03:58;99895.78;;;14.12;31.38
6524;BME280;3295;38.928;-77.052;2023-02-14T00:06:27;99892.22;;;14.04;31.78
6524;BME280;3295;38.928;-77.052;2023-02-14T00:08:56;99888.56;;;13.95;32.28
6524;BME280;3295;38.928;-77.052;2023-02-14T00:11:24;99899.75;;;13.98;32.02
6524;BME280;3295;38.928;-77.052;2023-02-14T00:13:52;99905.75;;;13.99;31.96
6524;BME280;3295;38.928;-77.052;2023-02-14T00:16:37;99903.16;;;13.97;32.19
6524;BME280;3295;38.928;-77.052;2023-02-14T00:19:07;99904.03;;;13.98;32.58
6524;BME280;3295;38.928;-77.052;2023-02-14T00:21:36;99905.72;;;13.97;32.22
6524;BME280;3295;38.928;-77.052;2023-02-14T00:24:06;99899.50;;;13.86;33.25
6524;BME280;3295;38.928;-77.052;2023-02-14T00:26:35;99911.31;;;13.78;32.92
6524;BME280;3295;38.928;-77.052;2023-02-14T00:29:04;99920.47;;;13.68;33.17
6524;BME280;3295;38.928;-77.052;2023-02-14T00:31:32;99912.81;;;13.70;33.41
6524;BME280;3295;38.928;-77.052;2023-02-14T00:34:01;99913.72;;;13.72;33.67
6524;BME280;3295;38.928;-77.052;2023-02-14T00:36:31;99917.06;;;13.69;33.39
6524;BME280;3295;38.928;-77.052;2023-02-14T00:39:01;99921.47;;;13.75;33.64
6524;BME280;3295;38.928;-77.052;2023-02-14T00:41:30;99922.16;;;13.68;33.56
6524;BME280;3295;38.928;-77.052;2023-02-14T00:43:58;99929.03;;;13.69;33.58
6524;BME280;3295;38.928;-77.052;2023-02-14T00:46:27;99940.09;;;13.68;33.94
6524;BME280;3295;38.928;-77.052;2023-02-14T00:48:55;99946.91;;;13.66;34.46
6524;BME280;3295;38.928;-77.052;2023-02-14T00:51:23;99946.47;;;13.47;35.08
6524;BME280;3295;38.928;-77.052;2023-02-14T00:53:53;99953.41;;;13.51;34.96
6524;BME280;3295;38.928;-77.052;2023-02-14T00:56:21;99952.63;;;13.56;34.37
6524;BME280;3295;38.928;-77.052;2023-02-14T00:58:48;99960.41;;;13.59;34.48
6524;BME280;3295;38.928;-77.052;2023-02-14T01:01:17;99951.88;;;13.60;34.30
6524;BME280;3295;38.928;-77.052;2023-02-14T01:03:46;99950.16;;;13.59;34.45
6524;BME280;3295;38.928;-77.052;2023-02-14T01:06:14;99956.19;;;13.61;34.56
6524;BME280;3295;38.928;-77.052;2023-02-14T01:08:42;99962.97;;;13.59;34.69
6524;BME280;3295;38.928;-77.052;2023-02-14T01:11:13;99961.97;;;13.53;34.88
6524;BME280;3295;38.928;-77.052;2023-02-14T01:13:42;99960.28;;;13.52;34.92
6524;BME280;3295;38.928;-77.052;2023-02-14T01:16:13;99970.38;;;13.46;35.35
6524;BME280;3295;38.928;-77.052;2023-02-14T01:18:42;99960.88;;;13.42;35.40
6524;BME280;3295;38.928;-77.052;2023-02-14T01:21:16;99977.00;;;13.38;35.61
6524;BME280;3295;38.928;-77.052;2023-02-14T01:23:45;99985.44;;;13.34;35.84
6524;BME280;3295;38.928;-77.052;2023-02-14T01:26:15;99993.25;;;13.39;35.77
6524;BME280;3295;38.928;-77.052;2023-02-14T01:28:44;99997.50;;;13.38;35.67
6524;BME280;3295;38.928;-77.052;2023-02-14T01:31:14;99998.16;;;13.31;36.11
6524;BME280;3295;38.928;-77.052;2023-02-14T01:33:43;99998.91;;;13.27;36.08
6524;BME280;3295;38.928;-77.052;2023-02-14T01:36:16;99998.91;;;13.27;36.06
6524;BME280;3295;38.928;-77.052;2023-02-14T01:38:45;100008.13;;;13.21;36.47
6524;BME280;3295;38.928;-77.052;2023-02-14T01:41:14;100002.16;;;13.20;36.42
6524;BME280;3295;38.928;-77.052;2023-02-14T01:43:50;100005.44;;;13.16;36.07
6524;BME280;3295;38.928;-77.052;2023-02-14T01:46:18;100008.06;;;13.18;36.38
6524;BME280;3295;38.928;-77.052;2023-02-14T01:48:46;100012.38;;;13.20;36.08
6524;BME280;3295;38.928;-77.052;2023-02-14T01:51:16;100005.53;;;13.19;36.28
6524;BME280;3295;38.928;-77.052;2023-02-14T01:53:45;100009.09;;;13.24;36.23
6524;BME280;3295;38.928;-77.052;2023-02-14T01:56:19;100015.88;;;13.22;36.26
6524;BME280;3295;38.928;-77.052;2023-02-14T01:58:50;100014.34;;;13.30;35.98
6524;BME280;3295;38.928;-77.052;2023-02-14T02:01:20;100021.28;;;13.34;36.68
6524;BME280;3295;38.928;-77.052;2023-02-14T02:03:51;100022.94;;;13.32;35.93
6524;BME280;3295;38.928;-77.052;2023-02-14T02:06:25;100021.28;;;13.34;36.15
6524;BME280;3295;38.928;-77.052;2023-02-14T02:09:04;100033.28;;;13.35;36.52
6524;BME280;3295;38.928;-77.052;2023-02-14T02:11:36;100035.78;;;13.34;36.31
6524;BME280;3295;38.928;-77.052;2023-02-14T02:14:12;100034.09;;;13.34;36.42
6524;BME280;3295;38.928;-77.052;2023-02-14T02:17:00;100037.53;;;13.35;36.97
6524;BME280;3295;38.928;-77.052;2023-02-14T02:20:09;100045.16;;;13.33;36.98
6524;BME280;3295;38.928;-77.052;2023-02-14T02:22:59;100048.47;;;13.29;37.78
6524;BME280;3295;38.928;-77.052;2023-02-14T02:25:58;100050.94;;;13.26;36.86
6524;BME280;3295;38.928;-77.052;2023-02-14T02:29:00;100059.31;;;13.19;36.69
6524;BME280;3295;38.928;-77.052;2023-02-14T02:32:01;100066.28;;;13.25;36.68
6524;BME280;3295;38.928;-77.052;2023-02-14T02:37:46;100071.28;;;13.20;37.11
6524;BME280;3295;38.928;-77.052;2023-02-14T02:40:27;100071.25;;;13.19;36.53
6524;BME280;3295;38.928;-77.052;2023-02-14T02:43:06;100078.75;;;13.14;36.82
6524;BME280;3295;38.928;-77.052;2023-02-14T02:45:44;100073.75;;;13.17;36.88
6524;BME280;3295;38.928;-77.052;2023-02-14T02:48:33;100088.28;;;13.18;36.90
6524;BME280;3295;38.928;-77.052;2023-02-14T02:51:07;100093.25;;;13.13;37.15
6524;BME280;3295;38.928;-77.052;2023-02-14T02:54:01;100099.19;;;13.11;36.91
6524;BME280;3295;38.928;-77.052;2023-02-14T02:56:34;100102.63;;;13.13;37.69
6524;BME280;3295;38.928;-77.052;2023-02-14T02:59:17;100114.34;;;13.05;37.16
6524;BME280;3295;38.928;-77.052;2023-02-14T03:01:49;100111.06;;;13.09;36.84
6524;BME280;3295;38.928;-77.052;2023-02-14T03:04:20;100124.78;;;13.11;37.18
6524;BME280;3295;38.928;-77.052;2023-02-14T03:07:07;100126.53;;;13.13;37.09
6524;BME280;3295;38.928;-77.052;2023-02-14T03:09:53;100124.69;;;13.08;37.82
6524;BME280;3295;38.928;-77.052;2023-02-14T03:15:34;100133.22;;;13.08;37.66
6524;BME280;3295;38.928;-77.052;2023-02-14T03:18:07;100139.13;;;13.06;38.67
6524;BME280;3295;38.928;-77.052;2023-02-14T03:20:59;100142.50;;;13.05;38.02
6524;BME280;3295;38.928;-77.052;2023-02-14T03:23:34;100135.50;;;12.99;37.49
6524;BME280;3295;38.928;-77.052;2023-02-14T03:26:13;100152.50;;;12.96;39.76
6524;BME280;3295;38.928;-77.052;2023-02-14T03:28:50;100146.38;;;12.91;40.36
6524;BME280;3295;38.928;-77.052;2023-02-14T03:31:26;100147.66;;;12.76;40.70
6524;BME280;3295;38.928;-77.052;2023-02-14T03:34:07;100155.88;;;12.66;40.92
6524;BME280;3295;38.928;-77.052;2023-02-14T03:36:40;100152.31;;;12.61;41.44
6524;BME280;3295;38.928;-77.052;2023-02-14T03:39:15;100170.88;;;12.54;41.50
6524;BME280;3295;38.928;-77.052;2023-02-14T03:41:48;100174.75;;;12.41;41.99
6524;BME280;3295;38.928;-77.052;2023-02-14T03:44:20;100170.28;;;12.36;42.15
6524;BME280;3295;38.928;-77.052;2023-02-14T03:46:52;100177.41;;;12.19;41.59
6524;BME280;3295;38.928;-77.052;2023-02-14T03:49:23;100185.50;;;12.06;42.15
6524;BME280;3295;38.928;-77.052;2023-02-14T03:51:55;100187.59;;;11.92;42.43
6524;BME280;3295;38.928;-77.052;2023-02-14T03:54:27;100185.00;;;11.67;43.12
6524;BME280;3295;38.928;-77.052;2023-02-14T03:57:03;100191.88;;;11.44;45.20
6524;BME280;3295;38.928;-77.052;2023-02-14T03:59:34;100207.66;;;11.10;46.81
6524;BME280;3295;38.928;-77.052;2023-02-14T04:02:05;100213.31;;;10.79;46.66
6524;BME280;3295;38.928;-77.052;2023-02-14T04:04:36;100212.88;;;10.68;46.71
6524;BME280;3295;38.928;-77.052;2023-02-14T04:07:13;100213.56;;;10.64;47.42
6524;BME280;3295;38.928;-77.052;2023-02-14T04:09:43;100215.41;;;10.68;48.03
6524;BME280;3295;38.928;-77.052;2023-02-14T04:12:13;100225.88;;;10.75;48.01
6524;BME280;3295;38.928;-77.052;2023-02-14T04:14:41;100224.34;;;10.80;47.94
6524;BME280;3295;38.928;-77.052;2023-02-14T04:17:09;100230.63;;;10.65;48.63
6524;BME280;3295;38.928;-77.052;2023-02-14T04:19:56;100239.34;;;10.50;48.74
6524;BME280;3295;38.928;-77.052;2023-02-14T04:22:24;100235.53;;;10.40;48.73
6524;BME280;3295;38.928;-77.052;2023-02-14T04:24:54;100241.44;;;10.39;48.62
6524;BME280;3295;38.928;-77.052;2023-02-14T04:27:21;100239.72;;;10.38;49.23
6524;BME280;3295;38.928;-77.052;2023-02-14T04:29:49;100245.16;;;10.26;49.60
6524;BME280;3295;38.928;-77.052;2023-02-14T04:32:21;100260.28;;;10.03;51.46
6524;BME280;3295;38.928;-77.052;2023-02-14T04:34:49;100257.88;;;9.86;52.16
6524;BME280;3295;38.928;-77.052;2023-02-14T04:37:18;100268.56;;;9.78;52.00
6524;BME280;3295;38.928;-77.052;2023-02-14T04:39:46;100271.03;;;9.76;52.70
6524;BME280;3295;38.928;-77.052;2023-02-14T04:42:16;100275.88;;;9.70;53.16
6524;BME280;3295;38.928;-77.052;2023-02-14T04:44:44;100277.47;;;9.68;53.84
6524;BME280;3295;38.928;-77.052;2023-02-14T04:47:13;100286.97;;;9.72;54.15
6524;BME280;3295;38.928;-77.052;2023-02-14T04:49:41;100288.78;;;9.75;54.32
6524;BME280;3295;38.928;-77.052;2023-02-14T04:52:09;100294.53;;;9.71;54.66
6524;BME280;3295;38.928;-77.052;2023-02-14T04:54:38;100295.69;;;9.58;55.10
6524;BME280;3295;38.928;-77.052;2023-02-14T04:57:06;100298.91;;;9.54;54.81
6524;BME280;3295;38.928;-77.052;2023-02-14T04:59:35;100305.31;;;9.46;55.75
6524;BME280;3295;38.928;-77.052;2023-02-14T05:02:03;100305.84;;;9.39;55.71
6524;BME280;3295;38.928;-77.052;2023-02-14T05:04:31;100314.06;;;9.33;55.96
6524;BME280;3295;38.928;-77.052;2023-02-14T05:06:59;100321.53;;;9.29;54.97
6524;BME280;3295;38.928;-77.052;2023-02-14T05:09:27;100328.69;;;9.19;55.04
6524;BME280;3295;38.928;-77.052;2023-02-14T05:11:55;100330.03;;;9.11;55.75
6524;BME280;3295;38.928;-77.052;2023-02-14T05:14:23;100339.03;;;9.05;56.52
6524;BME280;3295;38.928;-77.052;2023-02-14T05:16:52;100347.19;;;8.98;56.30
6524;BME280;3295;38.928;-77.052;2023-02-14T05:19:20;100342.66;;;8.92;56.91
6524;BME280;3295;38.928;-77.052;2023-02-14T05:21:48;100355.97;;;9.04;56.40
6524;BME280;3295;38.928;-77.052;2023-02-14T05:24:17;100362.72;;;9.04;59.39
6524;BME280;3295;38.928;-77.052;2023-02-14T05:26:45;100363.81;;;9.09;57.37
6524;BME280;3295;38.928;-77.052;2023-02-14T05:29:13;100368.91;;;9.26;55.67
6524;BME280;3295;38.928;-77.052;2023-02-14T05:31:41;100374.75;;;9.43;53.43
6524;BME280;3295;38.928;-77.052;2023-02-14T05:34:10;100375.41;;;9.57;52.06
6524;BME280;3295;38.928;-77.052;2023-02-14T05:36:38;100380.56;;;9.58;51.85
6524;BME280;3295;38.928;-77.052;2023-02-14T05:39:06;100374.63;;;9.77;51.34
6524;BME280;3295;38.928;-77.052;2023-02-14T05:41:34;100392.16;;;9.71;52.87
6524;BME280;3295;38.928;-77.052;2023-02-14T05:44:02;100380.91;;;9.84;51.05
6524;BME280;3295;38.928;-77.052;2023-02-14T05:46:30;100385.66;;;9.95;50.46
6524;BME280;3295;38.928;-77.052;2023-02-14T05:48:58;100383.09;;;9.76;52.57
6524;BME280;3295;38.928;-77.052;2023-02-14T05:51:27;100403.84;;;9.85;51.63
6524;BME280;3295;38.928;-77.052;2023-02-14T05:53:55;100408.28;;;9.70;52.71
6524;BME280;3295;38.928;-77.052;2023-02-14T05:56:25;100414.03;;;9.85;52.93
6524;BME280;3295;38.928;-77.052;2023-02-14T05:58:53;100415.13;;;9.90;52.09
6524;BME280;3295;38.928;-77.052;2023-02-14T06:01:20;100420.88;;;9.86;53.01
6524;BME280;3295;38.928;-77.052;2023-02-14T06:03:48;100432.25;;;9.75;53.49
6524;BME280;3295;38.928;-77.052;2023-02-14T06:06:16;100440.31;;;9.84;52.77
6524;BME280;3295;38.928;-77.052;2023-02-14T06:08:46;100444.06;;;9.73;55.50
6524;BME280;3295;38.928;-77.052;2023-02-14T06:11:13;100450.06;;;9.56;59.20
6524;BME280;3295;38.928;-77.052;2023-02-14T06:13:41;100460.66;;;9.65;56.14
6524;BME280;3295;38.928;-77.052;2023-02-14T06:16:09;100464.81;;;9.63;55.56
6524;BME280;3295;38.928;-77.052;2023-02-14T06:18:37;100467.66;;;9.69;54.63
6524;BME280;3295;38.928;-77.052;2023-02-14T06:21:05;100481.97;;;9.67;54.78
6524;BME280;3295;38.928;-77.052;2023-02-14T06:23:33;100470.25;;;9.53;56.79
6524;BME280;3295;38.928;-77.052;2023-02-14T06:26:02;100473.59;;;9.34;56.58
6524;BME280;3295;38.928;-77.052;2023-02-14T06:28:30;100467.63;;;9.34;57.21
6524;BME280;3295;38.928;-77.052;2023-02-14T06:30:58;100469.38;;;9.35;57.84
6524;BME280;3295;38.928;-77.052;2023-02-14T06:33:26;100473.31;;;9.46;58.16
6524;BME280;3295;38.928;-77.052;2023-02-14T06:35:54;100479.06;;;9.42;58.92
6524;BME280;3295;38.928;-77.052;2023-02-14T06:38:22;100482.25;;;9.38;58.85
6524;BME280;3295;38.928;-77.052;2023-02-14T06:40:50;100477.53;;;9.45;57.72
6524;BME280;3295;38.928;-77.052;2023-02-14T06:43:19;100482.69;;;9.47;57.53
6524;BME280;3295;38.928;-77.052;2023-02-14T06:45:47;100475.13;;;9.48;56.43
6524;BME280;3295;38.928;-77.052;2023-02-14T06:48:15;100481.81;;;9.46;55.74
6524;BME280;3295;38.928;-77.052;2023-02-14T06:50:45;100487.56;;;9.60;54.71
6524;BME280;3295;38.928;-77.052;2023-02-14T06:53:12;100489.88;;;9.73;50.22
6524;BME280;3295;38.928;-77.052;2023-02-14T06:55:40;100505.88;;;9.88;53.83
6524;BME280;3295;38.928;-77.052;2023-02-14T06:58:08;100514.47;;;9.90;49.46
6524;BME280;3295;38.928;-77.052;2023-02-14T07:00:38;100500.41;;;9.98;50.14
6524;BME280;3295;38.928;-77.052;2023-02-14T07:03:06;100514.00;;;9.99;48.11
6524;BME280;3295;38.928;-77.052;2023-02-14T07:05:34;100523.09;;;10.12;50.21
6524;BME280;3295;38.928;-77.052;2023-02-14T07:08:02;100530.75;;;10.12;49.25
6524;BME280;3295;38.928;-77.052;2023-02-14T07:10:30;100546.66;;;10.24;48.44
6524;BME280;3295;38.928;-77.052;2023-02-14T07:12:59;100550.94;;;10.25;48.64
6524;BME280;3295;38.928;-77.052;2023-02-14T07:15:27;100549.47;;;10.30;47.67
6524;BME280;3295;38.928;-77.052;2023-02-14T07:17:56;100556.97;;;10.27;48.93
6524;BME280;3295;38.928;-77.052;2023-02-14T07:20:24;100559.00;;;10.34;47.38
6524;BME280;3295;38.928;-77.052;2023-02-14T07:22:52;100566.91;;;10.40;46.60
6524;BME280;3295;38.928;-77.052;2023-02-14T07:25:20;100566.41;;;10.47;47.38
6524;BME280;3295;38.928;-77.052;2023-02-14T07:27:48;100567.13;;;10.45;50.05
6524;BME280;3295;38.928;-77.052;2023-02-14T07:30:16;100567.47;;;10.52;48.90
6524;BME280;3295;38.928;-77.052;2023-02-14T07:32:44;100560.50;;;10.48;47.97
6524;BME280;3295;38.928;-77.052;2023-02-14T07:35:14;100564.81;;;10.49;47.81
6524;BME280;3295;38.928;-77.052;2023-02-14T07:37:42;100569.34;;;10.56;46.43
6524;BME280;3295;38.928;-77.052;2023-02-14T07:40:10;100578.63;;;10.54;45.68
6524;BME280;3295;38.928;-77.052;2023-02-14T07:42:38;100585.47;;;10.55;48.80
6524;BME280;3295;38.928;-77.052;2023-02-14T07:45:07;100605.66;;;10.51;49.37
6524;BME280;3295;38.928;-77.052;2023-02-14T07:47:35;100606.41;;;10.48;50.31
6524;BME280;3295;38.928;-77.052;2023-02-14T07:50:03;100599.31;;;10.43;50.85
6524;BME280;3295;38.928;-77.052;2023-02-14T07:52:33;100608.88;;;10.29;51.45
6524;BME280;3295;38.928;-77.052;2023-02-14T07:55:01;100611.63;;;10.16;51.83
6524;BME280;3295;38.928;-77.052;2023-02-14T07:57:29;100612.16;;;10.09;52.13
6524;BME280;3295;38.928;-77.052;2023-02-14T07:59:57;100615.50;;;10.08;52.63
6524;BME280;3295;38.928;-77.052;2023-02-14T08:02:25;100611.38;;;10.10;52.30
6524;BME280;3295;38.928;-77.052;2023-02-14T08:04:52;100618.53;;;10.01;52.40
6524;BME280;3295;38.928;-77.052;2023-02-14T08:07:20;100624.50;;;10.01;52.72
6524;BME280;3295;38.928;-77.052;2023-02-14T08:09:50;100631.66;;;9.90;52.92
6524;BME280;3295;38.928;-77.052;2023-02-14T08:12:18;100624.53;;;9.83;52.84
6524;BME280;3295;38.928;-77.052;2023-02-14T08:15:17;100628.88;;;9.68;52.39
6524;BME280;3295;38.928;-77.052;2023-02-14T08:18:02;100635.22;;;9.60;53.17
6524;BME280;3295;38.928;-77.052;2023-02-14T08:20:30;100634.09;;;9.37;53.41
6524;BME280;3295;38.928;-77.052;2023-02-14T08:22:58;100640.22;;;9.24;53.62
6524;BME280;3295;38.928;-77.052;2023-02-14T08:25:28;100633.06;;;9.17;53.36
6524;BME280;3295;38.928;-77.052;2023-02-14T08:27:55;100640.31;;;9.10;53.39
6524;BME280;3295;38.928;-77.052;2023-02-14T08:30:23;100636.09;;;9.10;53.29
6524;BME280;3295;38.928;-77.052;2023-02-14T08:32:52;100646.19;;;9.09;53.87
6524;BME280;3295;38.928;-77.052;2023-02-14T08:35:20;100665.19;;;9.15;54.52
6524;BME280;3295;38.928;-77.052;2023-02-14T08:37:48;100669.53;;;9.18;54.41
6524;BME280;3295;38.928;-77.052;2023-02-14T08:40:17;100674.09;;;9.23;54.45
6524;BME280;3295;38.928;-77.052;2023-02-14T08:42:47;100693.03;;;9.29;53.87
6524;BME280;3295;38.928;-77.052;2023-02-14T08:45:15;100696.03;;;9.21;54.07
6524;BME280;3295;38.928;-77.052;2023-02-14T08:47:42;100704.63;;;9.23;54.50
6524;BME280;3295;38.928;-77.052;2023-02-14T08:50:12;100710.25;;;9.18;55.93
6524;BME280;3295;38.928;-77.052;2023-02-14T08:52:41;100710.31;;;9.03;56.75
6524;BME280;3295;38.928;-77.052;2023-02-14T08:55:10;100716.03;;;8.83;57.76
6524;BME280;3295;38.928;-77.052;2023-02-14T08:57:38;100713.78;;;8.73;58.96
6524;BME280;3295;38.928;-77.052;2023-02-14T09:00:09;100713.56;;;8.53;59.60
6524;BME280;3295;38.928;-77.052;2023-02-14T09:02:37;100710.94;;;8.37;60.41
6524;BME280;3295;38.928;-77.052;2023-02-14T09:05:05;100710.22;;;8.25;61.03
6524;BME280;3295;38.928;-77.052;2023-02-14T09:07:35;100720.47;;;8.12;64.04
6524;BME280;3295;38.928;-77.052;2023-02-14T09:10:04;100728.19;;;7.99;65.56
6524;BME280;3295;38.928;-77.052;2023-02-14T09:12:32;100744.47;;;7.88;67.33
6524;BME280;3295;38.928;-77.052;2023-02-14T09:14:59;100739.72;;;7.94;68.07
6524;BME280;3295;38.928;-77.052;2023-02-14T09:17:29;100757.94;;;7.87;69.97
6524;BME280;3295;38.928;-77.052;2023-02-14T09:19:57;100756.16;;;7.71;70.86
6524;BME280;3295;38.928;-77.052;2023-02-14T09:22:24;100765.09;;;7.64;71.95
6524;BME280;3295;38.928;-77.052;2023-02-14T09:24:52;100767.69;;;7.51;74.29
6524;BME280;3295;38.928;-77.052;2023-02-14T09:27:20;100755.03;;;7.38;74.68
6524;BME280;3295;38.928;-77.052;2023-02-14T09:29:48;100766.91;;;7.39;74.15
6524;BME280;3295;38.928;-77.052;2023-02-14T09:32:17;100766.03;;;7.38;74.89
6524;BME280;3295;38.928;-77.052;2023-02-14T09:34:46;100771.25;;;7.27;75.43
6524;BME280;3295;38.928;-77.052;2023-02-14T09:37:31;100772.03;;;7.26;75.18
6524;BME280;3295;38.928;-77.052;2023-02-14T09:40:17;100788.22;;;7.28;75.02
6524;BME280;3295;38.928;-77.052;2023-02-14T09:42:54;100790.06;;;7.30;76.56
6524;BME280;3295;38.928;-77.052;2023-02-14T09:45:26;100795.81;;;7.41;75.65
6524;BME280;3295;38.928;-77.052;2023-02-14T09:47:57;100807.34;;;7.36;74.56
6524;BME280;3295;38.928;-77.052;2023-02-14T09:50:31;100822.56;;;7.36;73.39
6524;BME280;3295;38.928;-77.052;2023-02-14T09:53:02;100827.66;;;7.36;73.25
6524;BME280;3295;38.928;-77.052;2023-02-14T09:55:34;100834.28;;;7.34;69.05
6524;BME280;3295;38.928;-77.052;2023-02-14T09:58:09;100841.56;;;7.42;68.97
6524;BME280;3295;38.928;-77.052;2023-02-14T10:00:44;100852.91;;;7.34;68.14
6524;BME280;3295;38.928;-77.052;2023-02-14T10:03:51;100852.00;;;7.47;68.56
6524;BME280;3295;38.928;-77.052;2023-02-14T10:06:47;100862.53;;;7.53;68.00
6524;BME280;3295;38.928;-77.052;2023-02-14T10:09:35;100869.84;;;7.62;67.51
6524;BME280;3295;38.928;-77.052;2023-02-14T10:12:20;100879.59;;;7.56;67.46
6524;BME280;3295;38.928;-77.052;2023-02-14T10:14:49;100889.28;;;7.48;68.56
6524;BME280;3295;38.928;-77.052;2023-02-14T10:17:24;100901.59;;;7.29;70.92
6524;BME280;3295;38.928;-77.052;2023-02-14T10:19:57;100899.06;;;7.16;71.86
6524;BME280;3295;38.928;-77.052;2023-02-14T10:22:36;100913.59;;;7.05;73.02
6524;BME280;3295;38.928;-77.052;2023-02-14T10:25:14;100917.38;;;7.11;75.62
6524;BME280;3295;38.928;-77.052;2023-02-14T10:27:45;100910.59;;;7.24;75.31
6524;BME280;3295;38.928;-77.052;2023-02-14T10:30:15;100908.44;;;7.30;75.01
6524;BME280;3295;38.928;-77.052;2023-02-14T10:32:46;100917.22;;;7.35;74.59
6524;BME280;3295;38.928;-77.052;2023-02-14T10:35:22;100908.63;;;7.33;73.66
6524;BME280;3295;38.928;-77.052;2023-02-14T10:38:00;100920.53;;;7.21;73.35
6524;BME280;3295;38.928;-77.052;2023-02-14T10:43:34;100933.94;;;6.67;77.66
6524;BME280;3295;38.928;-77.052;2023-02-14T10:46:12;100943.16;;;6.28;81.60
6524;BME280;3295;38.928;-77.052;2023-02-14T10:48:50;100955.50;;;6.24;84.71
6524;BME280;3295;38.928;-77.052;2023-02-14T10:51:26;100963.53;;;6.18;84.99
6524;BME280;3295;38.928;-77.052;2023-02-14T10:54:12;100973.66;;;6.18;86.66
6524;BME280;3295;38.928;-77.052;2023-02-14T10:56:45;100974.81;;;6.10;83.56
6524;BME280;3295;38.928;-77.052;2023-02-14T10:59:19;100985.34;;;6.16;83.21
6524;BME280;3295;38.928;-77.052;2023-02-14T11:01:50;100989.06;;;6.21;85.15
6524;BME280;3295;38.928;-77.052;2023-02-14T11:04:21;100994.22;;;6.34;83.34
6524;BME280;3295;38.928;-77.052;2023-02-14T11:06:50;101001.09;;;6.49;81.63
6524;BME280;3295;38.928;-77.052;2023-02-14T11:09:20;101008.75;;;6.62;79.72
6524;BME280;3295;38.928;-77.052;2023-02-14T11:11:50;101011.59;;;6.66;80.53
6524;BME280;3295;38.928;-77.052;2023-02-14T11:14:22;101014.25;;;6.68;81.08
6524;BME280;3295;38.928;-77.052;2023-02-14T11:16:52;101007.00;;;6.61;80.49
6524;BME280;3295;38.928;-77.052;2023-02-14T11:19:23;101008.53;;;6.59;80.96
6524;BME280;3295;38.928;-77.052;2023-02-14T11:21:52;100998.72;;;6.63;79.82
6524;BME280;3295;38.928;-77.052;2023-02-14T11:24:28;101000.97;;;6.72;80.02
6524;BME280;3295;38.928;-77.052;2023-02-14T11:26:58;100994.84;;;6.68;79.02
6524;BME280;3295;38.928;-77.052;2023-02-14T11:29:29;100998.34;;;6.46;80.97
6524;BME280;3295;38.928;-77.052;2023-02-14T11:32:06;101012.22;;;6.14;84.32
6524;BME280;3295;38.928;-77.052;2023-02-14T11:34:37;101018.84;;;5.89;86.83
6524;BME280;3295;38.928;-77.052;2023-02-14T11:37:16;101035.13;;;5.81;89.01
6524;BME280;3295;38.928;-77.052;2023-02-14T11:39:48;101039.75;;;5.75;89.14
6524;BME280;3295;38.928;-77.052;2023-02-14T11:42:32;101039.66;;;5.85;90.76
6524;BME280;3295;38.928;-77.052;2023-02-14T11:45:02;101037.13;;;5.96;91.53
6524;BME280;3295;38.928;-77.052;2023-02-14T11:47:32;101045.69;;;6.10;90.50
6524;BME280;3295;38.928;-77.052;2023-02-14T11:50:04;101051.94;;;6.27;89.33
6524;BME280;3295;38.928;-77.052;2023-02-14T11:52:44;101038.09;;;6.47;81.11
6524;BME280;3295;38.928;-77.052;2023-02-14T11:55:24;101040.31;;;6.54;81.84
6524;BME280;3295;38.928;-77.052;2023-02-14T11:57:54;101044.97;;;6.36;80.39
6524;BME280;3295;38.928;-77.052;2023-02-14T12:00:23;101052.31;;;6.08;85.19
6524;BME280;3295;38.928;-77.052;2023-02-14T12:02:52;101042.84;;;5.94;87.96
6524;BME280;3295;38.928;-77.052;2023-02-14T12:05:22;101057.56;;;5.76;90.27
6524;BME280;3295;38.928;-77.052;2023-02-14T12:07:54;101061.75;;;5.52;91.21
6524;BME280;3295;38.928;-77.052;2023-02-14T12:10:29;101060.38;;;5.34;94.55
6524;BME280;3295;38.928;-77.052;2023-02-14T12:12:59;101052.03;;;5.35;96.13
6524;BME280;3295;38.928;-77.052;2023-02-14T12:15:33;101070.56;;;5.46;96.53
6524;BME280;3295;38.928;-77.052;2023-02-14T12:18:39;101086.81;;;5.49;96.26
6524;BME280;3295;38.928;-77.052;2023-02-14T12:21:33;101091.34;;;5.53;95.81
6524;BME280;3295;38.928;-77.052;2023-02-14T12:24:10;101100.91;;;5.57;96.84
6524;BME280;3295;38.928;-77.052;2023-02-14T12:26:44;101100.16;;;5.70;98.42
6524;BME280;3295;38.928;-77.052;2023-02-14T12:29:18;101101.59;;;5.78;92.62
6524;BME280;3295;38.928;-77.052;2023-02-14T12:31:48;101098.06;;;5.88;92.12
6524;BME280;3295;38.928;-77.052;2023-02-14T12:34:17;101112.84;;;6.05;92.67
6524;BME280;3295;38.928;-77.052;2023-02-14T12:37:07;101115.50;;;6.06;94.20
6524;BME280;3295;38.928;-77.052;2023-02-14T12:39:43;101119.25;;;6.00;94.61
6524;BME280;3295;38.928;-77.052;2023-02-14T12:42:26;101139.34;;;5.87;94.95
6524;BME280;3295;38.928;-77.052;2023-02-14T12:45:06;101159.38;;;5.84;95.47
6524;BME280;3295;38.928;-77.052;2023-02-14T12:47:46;101156.19;;;5.86;95.61
6524;BME280;3295;38.928;-77.052;2023-02-14T12:50:33;101171.19;;;5.95;96.22
6524;BME280;3295;38.928;-77.052;2023-02-14T12:53:32;101168.78;;;6.08;99.77
6524;BME280;3295;38.928;-77.052;2023-02-14T12:56:08;101172.19;;;6.20;99.85
6524;BME280;3295;38.928;-77.052;2023-02-14T12:58:49;101170.28;;;6.29;98.54
6524;BME280;3295;38.928;-77.052;2023-02-14T13:01:37;101184.06;;;6.45;97.69
6524;BME280;3295;38.928;-77.052;2023-02-14T13:04:25;101197.59;;;6.57;100.00
6524;BME280;3295;38.928;-77.052;2023-02-14T13:07:01;101205.09;;;6.67;98.80
6524;BME280;3295;38.928;-77.052;2023-02-14T13:09:39;101221.31;;;6.69;97.67
6524;BME280;3295;38.928;-77.052;2023-02-14T13:12:18;101227.78;;;6.77;99.43
6524;BME280;3295;38.928;-77.052;2023-02-14T13:14:59;101235.47;;;6.90;100.00
6524;BME280;3295;38.928;-77.052;2023-02-14T13:17:36;101242.13;;;7.13;99.27
6524;BME280;3295;38.928;-77.052;2023-02-14T13:20:28;101246.38;;;7.26;94.36
6524;BME280;3295;38.928;-77.052;2023-02-14T13:23:03;101239.06;;;7.42;92.26
6524;BME280;3295;38.928;-77.052;2023-02-14T13:25:35;101240.31;;;7.60;89.73
6524;BME280;3295;38.928;-77.052;2023-02-14T13:28:11;101244.59;;;7.86;90.29
6524;BME280;3295;38.928;-77.052;2023-02-14T13:30:41;101252.56;;;8.04;97.08
6524;BME280;3295;38.928;-77.052;2023-02-14T13:33:22;101259.00;;;8.12;95.00
6524;BME280;3295;38.928;-77.052;2023-02-14T13:35:52;101262.31;;;8.11;93.64